Time;durP1;ratioP1;P1;durP2;ratioP2;P2;SDS_P1;SDS_P2;PMS_P1;PMS_P2;Temp;Humidity;BMP_temperature;BMP_pressure;BME280_temperature;BME280_humidity;BME280_pressure;Samples;Min_cycle;Max_cycle;Signal;HPM_P1;HPM_P2
2021/10/09 00:00:30;;;;;;;;;16.50;16.50;;;;;15.97;51.29;102070.13;5100603;27;45505;-58
2021/10/09 00:02:55;;;;;;;;;18.00;16.75;;;;;15.94;51.45;102076.34;5100439;27;45554;-58
2021/10/09 00:05:20;;;;;;;;;17.50;17.50;;;;;15.87;51.71;102072.94;5100437;27;45318;-58
2021/10/09 00:07:46;;;;;;;;;17.00;16.25;;;;;15.91;51.61;102077.28;5082161;27;45259;-58
2021/10/09 00:10:13;;;;;;;;;17.75;15.50;;;;;15.89;51.54;102081.72;5100661;27;45439;-58
2021/10/09 00:12:38;;;;;;;;;19.00;15.75;;;;;15.80;51.83;102065.03;5099947;27;45253;-58
2021/10/09 00:15:05;;;;;;;;;20.00;18.00;;;;;15.81;51.94;102075.66;5102782;27;46553;-57
2021/10/09 00:17:31;;;;;;;;;19.00;16.75;;;;;15.81;51.87;102070.34;5103892;27;45292;-58
2021/10/09 00:19:56;;;;;;;;;22.00;19.00;;;;;15.79;51.95;102074.78;5104037;27;45307;-58
2021/10/09 00:22:22;;;;;;;;;21.50;18.50;;;;;15.77;52.07;102080.09;5103706;27;45550;-58
2021/10/09 00:24:47;;;;;;;;;14.25;12.75;;;;;15.74;52.01;102073.97;5103888;27;45232;-58
2021/10/09 00:27:13;;;;;;;;;21.50;21.25;;;;;15.73;51.65;102070.44;5103333;27;45247;-58
2021/10/09 00:29:38;;;;;;;;;20.00;17.50;;;;;15.71;51.96;102066.94;5103911;27;45456;-58
2021/10/09 00:32:04;;;;;;;;;21.00;19.00;;;;;15.69;52.24;102070.53;5103618;27;45189;-58
2021/10/09 00:34:29;;;;;;;;;23.50;19.00;;;;;15.66;52.10;102066.13;5103701;27;45316;-58
2021/10/09 00:36:55;;;;;;;;;19.00;19.00;;;;;15.64;52.30;102070.56;5085189;27;45489;-57
2021/10/09 00:39:20;;;;;;;;;20.00;16.75;;;;;15.61;52.37;102065.34;5103882;27;45391;-58
2021/10/09 00:41:45;;;;;;;;;23.75;19.75;;;;;15.60;52.19;102066.22;5085253;27;45411;-58
2021/10/09 00:44:13;;;;;;;;;19.00;16.75;;;;;15.54;52.11;102061.00;5102986;27;47078;-58
2021/10/09 00:46:39;;;;;;;;;20.25;17.00;;;;;15.56;52.17;102064.53;5103519;27;45367;-58
2021/10/09 00:49:06;;;;;;;;;19.50;18.25;;;;;15.53;52.41;102065.41;5103511;27;45264;-57
2021/10/09 00:51:31;;;;;;;;;19.00;19.00;;;;;15.51;52.51;102068.97;5083947;27;45254;-57
2021/10/09 00:54:00;;;;;;;;;18.75;18.00;;;;;15.49;52.42;102065.50;5103233;27;45148;-58
2021/10/09 00:56:28;;;;;;;;;19.75;19.50;;;;;15.48;52.08;102074.34;5103240;27;45343;-58
2021/10/09 00:58:55;;;;;;;;;23.00;19.25;;;;;15.43;52.13;102064.69;5081063;28;45402;-58
2021/10/09 01:01:21;;;;;;;;;15.75;14.00;;;;;15.43;52.68;102075.28;5082602;27;45253;-58
2021/10/09 01:03:48;;;;;;;;;21.00;18.50;;;;;15.40;52.52;102064.72;5082602;28;46279;-58
2021/10/09 01:06:13;;;;;;;;;16.00;16.00;;;;;15.40;52.18;102064.72;5081231;28;45333;-58
2021/10/09 01:08:39;;;;;;;;;23.00;19.00;;;;;15.39;52.32;102065.59;5082792;27;45310;-58
2021/10/09 01:11:05;;;;;;;;;24.00;21.00;;;;;15.34;52.71;102054.19;5082823;27;45238;-58
2021/10/09 01:13:30;;;;;;;;;19.75;18.50;;;;;15.35;52.64;102058.59;5082075;27;45677;-58
2021/10/09 01:15:55;;;;;;;;;17.50;17.50;;;;;15.28;52.97;102051.63;5082492;27;45460;-58
2021/10/09 01:18:21;;;;;;;;;19.25;17.75;;;;;15.32;52.61;102060.41;5082765;27;45264;-58
2021/10/09 01:20:47;;;;;;;;;19.00;19.00;;;;;15.31;52.96;102063.94;5082544;27;45256;-58
2021/10/09 01:23:13;;;;;;;;;22.50;19.00;;;;;15.28;52.89;102056.94;5082477;27;47465;-58
2021/10/09 01:25:39;;;;;;;;;20.00;17.75;;;;;15.27;52.80;102057.84;5081966;28;45329;-58
2021/10/09 01:28:04;;;;;;;;;20.50;18.00;;;;;15.25;52.66;102055.19;5082206;27;45347;-58
2021/10/09 01:30:29;;;;;;;;;22.25;20.00;;;;;15.22;52.64;102054.34;5081134;28;45371;-58
2021/10/09 01:32:55;;;;;;;;;20.25;18.25;;;;;15.19;52.69;102051.75;5082219;27;45216;-58
2021/10/09 01:35:20;;;;;;;;;19.75;17.75;;;;;15.20;52.62;102056.16;5082020;27;45476;-58
2021/10/09 01:37:45;;;;;;;;;22.75;19.00;;;;;15.11;52.86;102038.63;5082444;27;45238;-58
2021/10/09 01:40:11;;;;;;;;;21.25;19.00;;;;;15.11;53.18;102051.84;5080951;28;45322;-58
2021/10/09 01:42:36;;;;;;;;;21.25;19.75;;;;;15.12;53.20;102058.91;5081679;28;46075;-58
2021/10/09 01:45:06;;;;;;;;;23.75;21.00;;;;;15.09;53.01;102051.88;5082031;28;45434;-58
2021/10/09 01:47:32;;;;;;;;;21.00;18.00;;;;;15.10;53.11;102047.44;5082247;27;45381;-58
2021/10/09 01:49:57;;;;;;;;;21.75;20.50;;;;;15.07;53.25;102047.50;5081964;27;45341;-58
2021/10/09 01:52:22;;;;;;;;;21.75;19.50;;;;;15.05;52.73;102052.78;5081939;27;45313;-58
2021/10/09 01:54:49;;;;;;;;;21.75;20.00;;;;;15.04;52.83;102051.06;5081917;27;45382;-58
2021/10/09 01:57:14;;;;;;;;;19.50;19.25;;;;;15.02;53.34;102044.91;5085743;27;45328;-58
2021/10/09 01:59:39;;;;;;;;;19.25;19.25;;;;;14.97;53.18;102040.53;5102404;27;45241;-58
2021/10/09 02:02:05;;;;;;;;;20.75;20.25;;;;;14.99;52.99;102047.56;5102275;27;45184;-58
2021/10/09 02:04:30;;;;;;;;;16.50;15.75;;;;;14.98;53.26;102044.94;5102313;27;45166;-58
2021/10/09 02:06:56;;;;;;;;;21.00;19.25;;;;;14.97;53.24;102043.19;5102461;27;45252;-58
2021/10/09 02:09:21;;;;;;;;;20.75;19.75;;;;;14.96;53.40;102039.69;5083853;27;45253;-58
2021/10/09 02:11:49;;;;;;;;;18.75;18.50;;;;;14.94;53.28;102037.06;5102113;27;45360;-58
2021/10/09 02:27:40;;;;;;;;;21.50;20.25;;;;;14.84;53.20;102039.81;5101532;27;45371;-58
2021/10/09 02:30:06;;;;;;;;;19.75;19.75;;;;;14.82;53.65;102033.66;5101813;27;45412;-58
2021/10/09 02:32:31;;;;;;;;;20.00;18.75;;;;;14.82;53.29;102034.56;5083142;27;48026;-58
2021/10/09 02:34:56;;;;;;;;;22.00;20.25;;;;;14.79;53.67;102040.75;5101677;27;45305;-58
2021/10/09 02:37:21;;;;;;;;;25.50;22.75;;;;;14.79;53.54;102037.22;5100944;27;45251;-58
2021/10/09 02:39:47;;;;;;;;;29.00;24.75;;;;;14.76;53.26;102024.03;5101683;27;45462;-58
2021/10/09 02:42:12;;;;;;;;;27.00;24.00;;;;;14.77;53.45;102045.19;5101191;27;46278;-58
2021/10/09 02:44:37;;;;;;;;;21.25;21.00;;;;;14.75;53.90;102035.50;5101744;27;45536;-58
2021/10/09 02:47:03;;;;;;;;;22.50;19.50;;;;;14.74;53.87;102037.28;5101652;27;45514;-58
2021/10/09 02:49:28;;;;;;;;;24.50;23.25;;;;;14.72;53.47;102036.41;5101475;27;45391;-58
2021/10/09 02:51:54;;;;;;;;;22.00;20.50;;;;;14.72;53.78;102030.25;5082923;27;48291;-58
2021/10/09 02:54:19;;;;;;;;;24.50;22.00;;;;;14.71;53.83;102036.44;5083193;27;45249;-58
2021/10/09 02:56:44;;;;;;;;;22.50;21.75;;;;;14.65;53.23;102033.84;5083153;27;45375;-58
2021/10/09 02:59:10;;;;;;;;;22.00;20.50;;;;;14.67;53.46;102035.59;5100933;27;45382;-58
2021/10/09 03:01:35;;;;;;;;;26.75;22.25;;;;;14.65;53.37;102033.84;5101114;27;45251;-58
2021/10/09 03:04:00;;;;;;;;;23.25;23.25;;;;;14.66;53.42;102044.41;5082977;27;45248;-58
2021/10/09 03:06:26;;;;;;;;;23.00;22.25;;;;;14.61;53.77;102028.53;5083027;27;45323;-57
2021/10/09 03:08:51;;;;;;;;;20.75;20.75;;;;;14.63;53.45;102039.13;5083207;27;45486;-58
2021/10/09 03:11:16;;;;;;;;;20.25;19.75;;;;;14.62;53.93;102032.09;5101063;27;45311;-58
2021/10/09 03:13:42;;;;;;;;;24.50;22.50;;;;;14.61;53.73;102032.97;5100847;27;45268;-58
2021/10/09 03:16:07;;;;;;;;;25.25;23.25;;;;;14.60;53.71;102031.22;5101192;27;45330;-57
2021/10/09 03:18:32;;;;;;;;;24.75;23.50;;;;;14.59;53.86;102033.00;5101292;27;45190;-58
2021/10/09 03:20:59;;;;;;;;;25.00;25.00;;;;;14.57;53.74;102032.13;5100951;27;46084;-58
2021/10/09 03:23:24;;;;;;;;;22.25;21.25;;;;;14.58;53.62;102038.31;5101075;27;45217;-58
2021/10/09 03:25:49;;;;;;;;;22.00;22.00;;;;;14.54;53.48;102034.81;5082682;27;45227;-57
2021/10/09 03:28:15;;;;;;;;;24.25;21.75;;;;;14.56;54.14;102042.72;5100855;27;45355;-58
2021/10/09 03:30:40;;;;;;;;;19.50;19.50;;;;;14.54;53.55;102045.41;5100788;27;45555;-58
2021/10/09 03:33:05;;;;;;;;;23.75;20.00;;;;;14.51;53.77;102031.31;5100967;27;45244;-58
2021/10/09 03:35:31;;;;;;;;;26.50;25.25;;;;;14.52;53.84;102033.09;5100638;27;45399;-56
2021/10/09 03:37:57;;;;;;;;;23.75;22.50;;;;;14.50;54.02;102032.22;5101231;27;45390;-58
2021/10/09 03:40:24;;;;;;;;;27.75;24.00;;;;;14.49;54.20;102036.63;5100517;27;47189;-57
2021/10/09 03:43:03;;;;;;;;;23.00;21.25;;;;;14.46;53.63;102037.53;5100564;27;45395;-58
2021/10/09 03:45:45;;;;;;;;;26.00;23.50;;;;;14.45;53.93;102035.78;5100561;27;45238;-58
2021/10/09 03:53:02;;;;;;;;;27.50;24.00;;;;;14.39;53.94;102024.38;5100601;27;45213;-57
2021/10/09 03:55:28;;;;;;;;;24.25;22.50;;;;;14.40;54.25;102031.41;5100704;27;45227;-58
2021/10/09 03:57:53;;;;;;;;;26.50;25.00;;;;;14.39;54.08;102032.31;5081604;27;45536;-57
2021/10/09 04:00:19;;;;;;;;;27.50;25.75;;;;;14.36;53.98;102033.22;5100519;27;46722;-58
2021/10/09 04:02:44;;;;;;;;;33.50;29.75;;;;;14.35;54.23;102033.22;5100556;27;45146;-56
2021/10/09 04:05:10;;;;;;;;;28.25;27.75;;;;;14.33;53.81;102032.41;5100652;27;45416;-55
2021/10/09 04:07:36;;;;;;;;;23.00;23.00;;;;;14.33;54.36;102027.09;5100509;27;45325;-57
2021/10/09 04:10:03;;;;;;;;;27.25;24.00;;;;;14.32;54.37;102031.50;5100422;27;45990;-57
2021/10/09 04:12:28;;;;;;;;;25.25;24.50;;;;;14.31;54.14;102032.38;5100029;27;45259;-57
2021/10/09 04:14:54;;;;;;;;;26.00;23.25;;;;;14.30;54.38;102030.63;5100275;27;45326;-56
2021/10/09 04:17:19;;;;;;;;;31.50;30.00;;;;;14.28;54.08;102037.72;5100518;27;45238;-57
2021/10/09 04:19:44;;;;;;;;;28.00;23.25;;;;;14.25;54.10;102035.97;5100312;27;46032;-57
2021/10/09 04:22:10;;;;;;;;;32.00;25.75;;;;;14.24;54.45;102036.84;5100088;27;45268;-57
2021/10/09 04:24:35;;;;;;;;;26.25;24.25;;;;;14.21;54.38;102036.88;5100436;27;45252;-57
2021/10/09 04:27:01;;;;;;;;;26.25;25.25;;;;;14.22;54.04;102030.69;5099821;27;45312;-57
2021/10/09 04:29:26;;;;;;;;;23.25;22.75;;;;;14.22;54.04;102027.19;5100176;27;45281;-57
2021/10/09 04:31:52;;;;;;;;;28.75;27.75;;;;;14.20;53.98;102024.56;5100049;27;45235;-57
2021/10/09 04:34:18;;;;;;;;;24.50;23.50;;;;;14.18;54.16;102021.06;5100051;27;45251;-58
2021/10/09 04:36:43;;;;;;;;;29.50;27.75;;;;;14.16;54.44;102028.09;5100140;27;45457;-57
2021/10/09 04:39:09;;;;;;;;;30.00;25.25;;;;;14.18;54.36;102033.41;5100173;27;46107;-57
2021/10/09 04:41:34;;;;;;;;;30.00;27.25;;;;;14.16;54.33;102036.03;5099912;27;45267;-57
2021/10/09 04:43:59;;;;;;;;;27.00;26.25;;;;;14.14;54.64;102029.91;5099928;27;45143;-56
2021/10/09 04:46:25;;;;;;;;;27.25;26.00;;;;;14.13;54.60;102034.28;5099901;27;45356;-57
2021/10/09 04:48:50;;;;;;;;;30.00;28.00;;;;;14.09;54.15;102021.13;5099948;27;46100;-57
2021/10/09 04:51:16;;;;;;;;;31.25;28.75;;;;;14.11;54.35;102030.81;5099713;27;45318;-57
2021/10/09 04:53:41;;;;;;;;;30.00;27.25;;;;;14.08;54.41;102030.81;5100079;27;45310;-56
2021/10/09 04:56:07;;;;;;;;;31.25;28.25;;;;;14.09;54.64;102026.44;5099837;27;45321;-57
2021/10/09 04:58:32;;;;;;;;;31.75;26.50;;;;;14.07;54.38;102028.19;5080892;27;48409;-57
2021/10/09 05:00:57;;;;;;;;;26.75;26.00;;;;;14.02;54.40;102016.78;5102101;27;45342;-57
2021/10/09 05:03:23;;;;;;;;;28.00;27.75;;;;;14.03;54.38;102013.25;5103340;27;45558;-58
2021/10/09 05:05:48;;;;;;;;;31.00;29.75;;;;;14.03;54.38;102024.69;5103389;27;45294;-57
2021/10/09 05:08:14;;;;;;;;;37.75;32.50;;;;;14.01;54.77;102007.09;5103003;27;46254;-57
2021/10/09 05:10:41;;;;;;;;;34.50;30.50;;;;;14.01;54.33;102020.31;5103236;27;45357;-57
2021/10/09 05:13:06;;;;;;;;;35.00;30.00;;;;;14.00;54.28;102014.16;5102921;27;45247;-57
2021/10/09 05:15:32;;;;;;;;;33.75;27.00;;;;;13.98;54.66;102010.66;5102868;27;45170;-57
2021/10/09 05:17:57;;;;;;;;;29.00;26.25;;;;;13.94;54.86;102015.06;5102872;27;46208;-57
2021/10/09 05:20:22;;;;;;;;;32.00;28.25;;;;;13.95;54.71;102011.56;5103012;27;45327;-58
2021/10/09 05:22:48;;;;;;;;;30.00;28.25;;;;;13.93;54.62;102015.97;5103151;27;45278;-58
2021/10/09 05:25:14;;;;;;;;;36.25;30.25;;;;;13.93;54.57;102023.03;5103040;27;45177;-58
2021/10/09 05:27:42;;;;;;;;;26.75;25.25;;;;;13.89;54.52;102016.88;5102520;27;46372;-58
2021/10/09 05:30:09;;;;;;;;;32.75;29.50;;;;;13.89;54.29;102016.03;5102967;27;45472;-57
2021/10/09 05:32:36;;;;;;;;;29.75;26.50;;;;;13.88;54.75;102017.75;5103127;27;45328;-57
2021/10/09 05:35:03;;;;;;;;;32.75;30.00;;;;;13.87;54.71;102021.28;5102400;27;45327;-56
2021/10/09 05:37:31;;;;;;;;;31.00;28.00;;;;;13.86;54.76;102019.56;5102649;27;46477;-57
2021/10/09 05:39:57;;;;;;;;;35.00;30.50;;;;;13.82;54.38;102015.16;5102642;27;45400;-57
2021/10/09 05:42:22;;;;;;;;;29.75;27.00;;;;;13.81;54.87;102027.50;5084072;27;45409;-57
2021/10/09 05:44:50;;;;;;;;;36.50;31.25;;;;;13.78;54.58;102022.22;5084196;27;45533;-56
2021/10/09 05:47:15;;;;;;;;;34.25;29.75;;;;;13.81;54.80;102030.16;5102494;27;46355;-57
2021/10/09 05:49:40;;;;;;;;;31.50;28.00;;;;;13.78;55.05;102024.00;5102292;27;45299;-57
2021/10/09 05:52:19;;;;;;;;;33.25;27.00;;;;;13.75;54.97;102022.28;5102553;27;45443;-56
2021/10/09 05:55:01;;;;;;;;;32.25;29.00;;;;;13.75;54.61;102032.84;5102606;27;46123;-57
2021/10/09 05:57:40;;;;;;;;;35.00;32.00;;;;;13.74;55.07;102030.22;5101997;27;45286;-57
2021/10/09 06:44:42;;;;;;;;;39.75;32.25;;;;;13.57;55.26;102075.19;5101212;27;45396;-57
2021/10/09 07:00:18;;;;;;;;;42.75;35.25;;;;;13.58;55.37;102096.31;5101344;27;45308;-58
2021/10/09 07:02:44;;;;;;;;;36.50;32.25;;;;;13.52;55.13;102087.56;5082762;27;47187;-58
2021/10/09 07:05:12;;;;;;;;;38.75;33.75;;;;;13.60;55.48;102102.47;5083056;27;45362;-58
2021/10/09 07:07:57;;;;;;;;;41.00;33.00;;;;;13.62;55.43;102108.66;5101189;27;45193;-58
2021/10/09 07:10:23;;;;;;;;;39.50;34.00;;;;;13.62;55.45;102102.47;5101215;27;45271;-58
2021/10/09 07:12:49;;;;;;;;;40.00;33.00;;;;;13.61;55.54;102098.06;5100739;27;45394;-58
2021/10/09 07:15:15;;;;;;;;;39.75;33.00;;;;;13.61;55.24;102096.31;5101058;27;45217;-58
2021/10/09 07:17:41;;;;;;;;;47.00;38.25;;;;;13.66;55.49;102104.22;5083098;27;45362;-57
2021/10/09 07:20:08;;;;;;;;;43.50;36.00;;;;;13.67;55.54;102110.38;5101134;27;45473;-58
2021/10/09 07:22:35;;;;;;;;;41.50;36.00;;;;;13.68;55.59;102109.50;5100493;27;45509;-57
2021/10/09 07:25:01;;;;;;;;;43.00;34.50;;;;;13.72;55.78;102113.88;5100927;27;45422;-57
2021/10/09 07:27:26;;;;;;;;;36.75;32.75;;;;;13.73;55.27;102113.00;5100537;27;45287;-57
2021/10/09 07:29:52;;;;;;;;;41.00;35.50;;;;;13.74;55.44;102117.38;5100834;27;45564;-58
2021/10/09 07:32:17;;;;;;;;;46.25;37.25;;;;;13.76;55.74;102119.13;5100675;27;46175;-57
2021/10/09 07:34:43;;;;;;;;;42.25;36.00;;;;;13.78;55.33;102122.63;5100772;27;45204;-57
2021/10/09 07:37:08;;;;;;;;;46.00;36.75;;;;;13.77;55.49;102120.91;5100772;27;45207;-58
2021/10/09 07:39:34;;;;;;;;;40.00;33.50;;;;;13.83;55.35;102125.25;5100996;27;45512;-58
2021/10/09 07:42:00;;;;;;;;;38.75;34.50;;;;;13.85;55.39;102126.13;5100248;27;47058;-58
2021/10/09 07:44:25;;;;;;;;;40.75;34.25;;;;;13.87;55.40;102126.97;5100573;27;45413;-58
2021/10/09 07:46:51;;;;;;;;;41.00;33.50;;;;;13.86;55.79;102125.25;5100636;27;45362;-58
2021/10/09 07:49:17;;;;;;;;;46.50;36.75;;;;;13.90;55.55;102126.97;5100509;27;45297;-58
2021/10/09 07:51:43;;;;;;;;;42.75;35.25;;;;;13.94;55.30;102135.78;5100482;27;46294;-58
2021/10/09 07:54:08;;;;;;;;;47.25;39.00;;;;;13.96;55.47;102128.69;5100520;27;45240;-57
2021/10/09 07:56:34;;;;;;;;;49.25;39.75;;;;;14.02;55.60;102136.59;5100550;27;45298;-58
2021/10/09 07:58:59;;;;;;;;;46.25;39.50;;;;;14.06;56.01;102145.38;5081525;27;45628;-58
2021/10/09 08:01:25;;;;;;;;;46.75;36.50;;;;;14.10;55.86;102139.16;5100257;27;46239;-58
2021/10/09 08:03:51;;;;;;;;;45.00;36.00;;;;;14.13;55.56;102141.81;5100387;27;45264;-58
2021/10/09 08:06:17;;;;;;;;;43.00;34.25;;;;;14.18;55.56;102153.22;5100430;27;45242;-59
2021/10/09 08:08:43;;;;;;;;;50.25;41.50;;;;;14.22;55.71;102140.88;5081900;27;45165;-58
2021/10/09 08:11:08;;;;;;;;;45.75;36.50;;;;;14.25;55.69;102140.84;5100212;27;45262;-58
2021/10/09 08:13:37;;;;;;;;;47.25;37.25;;;;;14.29;55.64;102146.09;5099917;27;45287;-59
2021/10/09 08:16:04;;;;;;;;;46.50;36.75;;;;;14.34;55.91;102148.72;5081886;27;45409;-58
2021/10/09 08:18:30;;;;;;;;;41.50;35.00;;;;;14.41;55.88;102152.19;5100277;27;45454;-58
2021/10/09 08:21:04;;;;;;;;;44.00;37.25;;;;;14.46;56.12;102145.09;5081713;27;46245;-58
2021/10/09 08:23:36;;;;;;;;;50.00;40.25;;;;;14.52;56.11;102149.47;5100172;27;45407;-58
2021/10/09 08:26:32;;;;;;;;;47.00;37.50;;;;;14.58;55.99;102155.56;5081813;27;45370;-58
2021/10/09 08:38:46;;;;;;;;;52.25;42.00;;;;;14.86;56.13;102147.41;5103671;27;45220;-59
2021/10/09 08:39:51;;;;;;;;;63.00;50.00;;;;;14.94;55.90;102145.56;5092477;27;45489;-57
2021/10/09 08:42:17;;;;;;;;;50.00;42.00;;;;;15.00;56.17;102143.75;5103055;27;46145;-57
2021/10/09 08:44:43;;;;;;;;;53.75;42.50;;;;;15.09;55.98;102139.25;5085109;27;45308;-58
2021/10/09 08:47:11;;;;;;;;;47.50;40.00;;;;;15.17;55.73;102141.81;5085202;27;45331;-57
2021/10/09 08:49:37;;;;;;;;;41.50;34.50;;;;;15.24;56.00;102139.97;5084840;27;45485;-58
2021/10/09 08:52:04;;;;;;;;;41.50;35.00;;;;;15.35;55.65;102145.13;5089751;27;46387;-58
2021/10/09 08:54:37;;;;;;;;;38.75;33.00;;;;;15.46;55.87;102148.53;5103298;27;45397;-58
2021/10/09 08:57:14;;;;;;;;;43.00;34.75;;;;;15.54;56.01;102141.34;5102937;27;45441;-58
2021/10/09 08:59:46;;;;;;;;;40.25;34.75;;;;;15.66;55.44;102140.34;5084653;27;45618;-57
2021/10/09 09:07:55;;;;;;;;;39.00;35.00;;;;;16.00;55.58;102152.25;5086597;27;45401;-58
2021/10/09 09:41:21;;;;;;;;;36.25;30.50;;;;;17.54;55.05;102115.00;5102578;27;45433;-58
2021/10/09 09:43:46;;;;;;;;;48.25;38.00;;;;;17.69;55.10;102120.91;5101824;27;45325;-58
2021/10/09 09:46:14;;;;;;;;;45.25;36.75;;;;;17.71;54.80;102106.69;5083997;27;47303;-58
2021/10/09 09:48:45;;;;;;;;;36.00;32.50;;;;;17.94;55.11;102109.75;5102413;27;45415;-58
2021/10/09 09:51:12;;;;;;;;;34.25;32.50;;;;;18.10;54.97;102113.81;5102547;27;45452;-58
2021/10/09 09:53:40;;;;;;;;;37.75;29.25;;;;;18.24;54.66;102113.47;5102210;27;45578;-58
2021/10/09 09:56:07;;;;;;;;;35.25;31.50;;;;;18.38;54.63;102113.13;5102382;27;45195;-59
2021/10/09 09:58:37;;;;;;;;;54.75;45.75;;;;;18.51;54.26;102111.00;5101749;27;45455;-58
2021/10/09 10:01:05;;;;;;;;;35.75;32.25;;;;;18.64;54.75;102108.91;5102520;27;45305;-59
2021/10/09 10:03:32;;;;;;;;;42.50;34.00;;;;;18.82;54.43;102102.22;5102371;27;45251;-57
2021/10/09 10:05:58;;;;;;;;;37.25;33.00;;;;;18.95;54.19;102105.44;5102209;27;45175;-58
2021/10/09 10:08:26;;;;;;;;;34.75;31.75;;;;;19.08;54.21;102105.97;5102182;27;45239;-58
2021/10/09 10:10:55;;;;;;;;;32.00;30.00;;;;;19.21;54.49;102094.06;5102176;27;45331;-58
2021/10/09 10:13:24;;;;;;;;;34.00;30.25;;;;;19.37;53.99;102104.25;5101607;27;45327;-59
2021/10/09 10:15:53;;;;;;;;;36.25;31.50;;;;;19.48;53.87;102108.38;5101701;27;46378;-58
2021/10/09 10:18:43;;;;;;;;;29.75;29.50;;;;;19.64;54.15;102097.22;5101954;27;45523;-58
2021/10/09 10:21:13;;;;;;;;;56.75;45.50;;;;;19.77;53.65;102109.25;5102104;27;45251;-58
2021/10/09 10:23:41;;;;;;;;;35.25;29.75;;;;;19.88;53.99;102108.09;5102048;27;45298;-59
2021/10/09 10:26:18;;;;;;;;;32.25;30.00;;;;;20.03;53.51;102107.59;5101753;27;46207;-59
2021/10/09 10:28:45;;;;;;;;;29.50;28.75;;;;;20.14;53.70;102105.44;5101462;27;45283;-59
2021/10/09 10:31:10;;;;;;;;;29.00;27.75;;;;;20.27;53.66;102103.22;5083665;27;45369;-59
2021/10/09 10:33:43;;;;;;;;;26.75;26.25;;;;;20.40;52.89;102100.16;5101500;27;45504;-59
2021/10/09 10:36:11;;;;;;;;;29.50;26.50;;;;;20.52;52.80;102096.19;5101629;27;46236;-59
2021/10/09 10:38:44;;;;;;;;;22.25;22.00;;;;;20.64;53.05;102095.78;5101693;27;45319;-59
2021/10/09 10:41:15;;;;;;;;;19.75;19.75;;;;;20.72;52.60;102085.72;5101568;27;45314;-59
2021/10/09 10:57:05;;;;;;;;;65.25;49.75;;;;;21.51;52.52;102085.47;5100837;27;45413;-59
2021/10/09 10:59:48;;;;;;;;;25.00;23.25;;;;;21.65;52.14;102084.09;5101069;27;45245;-59
2021/10/09 11:02:13;;;;;;;;;29.75;29.50;;;;;21.78;52.22;102090.66;5101442;27;45325;-59
2021/10/09 11:04:47;;;;;;;;;29.25;28.00;;;;;21.93;51.97;102089.19;5082827;27;45322;-59
2021/10/09 11:07:13;;;;;;;;;28.75;25.25;;;;;22.06;51.59;102086.88;5101274;27;45854;-59
2021/10/09 11:09:40;;;;;;;;;32.50;26.25;;;;;22.15;51.89;102074.91;5083008;27;45401;-59
2021/10/09 11:12:22;;;;;;;;;122.00;118.50;;;;;22.37;51.38;102089.16;5100942;27;45169;-59
2021/10/09 11:14:48;;;;;;;;;27.25;27.25;;;;;22.52;51.70;102086.75;5101077;27;45425;-60
2021/10/09 11:17:14;;;;;;;;;60.00;48.50;;;;;22.67;51.05;102082.56;5100926;27;46091;-60
2021/10/09 11:19:50;;;;;;;;;26.25;25.00;;;;;22.84;51.33;102087.13;5101209;27;45349;-59
2021/10/09 11:22:20;;;;;;;;;23.25;23.00;;;;;23.00;51.11;102084.66;5101082;27;45269;-60
2021/10/09 11:24:51;;;;;;;;;25.00;25.00;;;;;23.16;50.57;102082.19;5100802;27;45354;-60
2021/10/09 11:27:19;;;;;;;;;28.00;25.50;;;;;23.29;50.89;102077.09;5100345;27;47365;-60
2021/10/09 11:30:02;;;;;;;;;24.25;23.00;;;;;23.58;51.15;102082.91;5100978;27;45368;-59
2021/10/09 11:32:37;;;;;;;;;26.75;22.75;;;;;23.77;50.90;102083.75;5100780;27;45466;-60
2021/10/09 11:35:03;;;;;;;;;21.00;19.00;;;;;23.98;50.82;102087.19;5100688;27;45256;-60
2021/10/09 11:37:29;;;;;;;;;29.50;26.75;;;;;24.13;50.22;102073.97;5100708;27;46204;-59
2021/10/09 11:39:58;;;;;;;;;30.75;24.75;;;;;24.42;50.56;102082.34;5100685;27;45331;-59
2021/10/09 11:42:28;;;;;;;;;21.25;17.50;;;;;24.65;50.09;102084.75;5100587;27;45347;-60
2021/10/09 11:56:08;;;;;;;;;27.00;25.50;;;;;25.83;49.71;102086.38;5100370;27;45327;-60
2021/10/09 11:58:54;;;;;;;;;22.00;20.50;;;;;26.06;49.91;102073.44;5099826;27;46482;-60
2021/10/09 12:01:41;;;;;;;;;31.25;26.25;;;;;26.28;49.25;102076.59;5100400;27;45262;-60
2021/10/09 12:04:18;;;;;;;;;24.00;24.00;;;;;26.48;49.31;102081.72;5100637;27;45247;-60
2021/10/09 12:06:47;;;;;;;;;23.25;22.00;;;;;26.66;49.05;102068.97;5100488;27;45223;-60
2021/10/09 12:09:15;;;;;;;;;27.25;24.25;;;;;26.83;48.73;102066.13;5100294;27;45356;-59
2021/10/09 12:11:41;;;;;;;;;20.25;20.00;;;;;26.99;48.68;102065.16;5103600;27;45343;-59
2021/10/09 12:14:11;;;;;;;;;24.75;23.75;;;;;27.18;48.70;102068.44;5103702;27;45393;-60
2021/10/09 12:16:41;;;;;;;;;46.00;39.25;;;;;27.39;48.44;102068.88;5103831;27;45426;-59
2021/10/09 12:19:12;;;;;;;;;19.25;17.75;;;;;27.60;48.49;102070.28;5103891;27;46184;-59
2021/10/09 12:21:54;;;;;;;;;30.25;28.75;;;;;27.79;48.04;102070.81;5103903;27;45360;-59
2021/10/09 12:24:25;;;;;;;;;75.67;68.33;;;;;28.01;48.29;102069.34;5103905;27;45232;-59
2021/10/09 12:27:07;;;;;;;;;19.50;18.25;;;;;28.19;48.27;102060.03;5103623;27;45469;-60
2021/10/09 12:29:35;;;;;;;;;22.00;20.25;;;;;28.40;47.87;102056.81;5103690;27;46207;-60
2021/10/09 12:32:19;;;;;;;;;27.00;24.25;;;;;28.63;48.15;102063.34;5103588;27;45302;-59
2021/10/09 12:34:45;;;;;;;;;19.75;17.75;;;;;28.83;47.95;102044.84;5103720;27;45414;-59
2021/10/09 12:37:24;;;;;;;;;25.00;21.75;;;;;29.04;47.85;102053.25;5103316;27;45614;-60
2021/10/09 12:40:11;;;;;;;;;23.75;22.75;;;;;29.28;47.13;102047.94;5103442;27;46375;-59
2021/10/09 12:42:37;;;;;;;;;21.00;21.00;;;;;29.45;47.30;102049.38;5103227;27;45292;-59
2021/10/09 12:45:04;;;;;;;;;21.75;18.50;;;;;29.65;47.19;102053.31;5103385;27;45440;-59
2021/10/09 12:47:30;;;;;;;;;21.75;20.50;;;;;29.81;46.50;102046.72;5103643;27;45297;-59
2021/10/09 12:49:56;;;;;;;;;22.75;22.75;;;;;29.97;46.84;102044.63;5103082;27;45354;-60
2021/10/09 12:52:21;;;;;;;;;20.50;18.50;;;;;30.11;46.58;102046.28;5103516;27;45239;-58
2021/10/09 12:54:46;;;;;;;;;24.75;22.00;;;;;30.23;46.25;102043.59;5103451;27;45256;-58
2021/10/09 12:57:12;;;;;;;;;20.75;20.50;;;;;30.38;46.21;102047.81;5084417;27;45820;-58
2021/10/09 12:59:37;;;;;;;;;25.75;24.75;;;;;30.47;45.93;102041.66;5103293;27;46107;-58
2021/10/09 13:02:03;;;;;;;;;20.50;20.00;;;;;30.56;46.04;102034.69;5103516;27;45236;-58
2021/10/09 13:04:29;;;;;;;;;21.00;20.00;;;;;30.55;45.10;102030.22;5103419;27;45437;-58
2021/10/09 13:06:54;;;;;;;;;20.50;18.50;;;;;30.70;45.45;102047.13;5103418;27;45447;-58
2021/10/09 13:09:20;;;;;;;;;23.75;20.25;;;;;30.75;45.09;102035.94;5102930;27;45274;-58
2021/10/09 13:11:56;;;;;;;;;20.25;19.00;;;;;30.80;44.77;102029.16;5103166;27;45215;-58
2021/10/09 13:14:22;;;;;;;;;19.50;18.25;;;;;30.91;45.12;102035.56;5084840;27;45389;-58
2021/10/09 13:16:47;;;;;;;;;22.75;20.50;;;;;30.96;44.73;102027.91;5103011;27;45334;-58
2021/10/09 13:19:13;;;;;;;;;20.75;19.50;;;;;31.07;45.48;102025.22;5102960;27;46124;-58
2021/10/09 13:21:39;;;;;;;;;42.25;36.50;;;;;31.20;44.74;102032.34;5083998;27;45469;-59
2021/10/09 13:24:04;;;;;;;;;22.00;21.75;;;;;31.31;45.41;102024.19;5103261;27;45303;-59
2021/10/09 13:26:31;;;;;;;;;26.25;24.75;;;;;31.44;44.97;102027.59;5084767;27;45417;-59
2021/10/09 13:28:57;;;;;;;;;38.75;34.75;;;;;31.58;44.79;102031.00;5084498;27;47001;-59
2021/10/09 13:31:23;;;;;;;;;17.50;17.25;;;;;31.71;44.64;102034.47;5084693;27;45209;-59
2021/10/09 13:33:48;;;;;;;;;22.75;21.00;;;;;31.84;44.61;102036.97;5102777;27;45356;-59
2021/10/09 13:36:15;;;;;;;;;21.00;20.25;;;;;31.97;44.51;102027.78;5102718;27;45212;-59